sensor_id;sensor_type;location;lat;lon;timestamp;temperature;humidity
11591;DHT22;5851;54.050;9.974;2023-12-04T00:00:12;0.50;99.90
11591;DHT22;5851;54.050;9.974;2023-12-04T00:02:40;0.50;99.90
11591;DHT22;5851;54.050;9.974;2023-12-04T00:05:08;0.40;99.90
11591;DHT22;5851;54.050;9.974;2023-12-04T00:07:35;0.40;99.90
11591;DHT22;5851;54.050;9.974;2023-12-04T00:10:02;0.40;99.90
11591;DHT22;5851;54.050;9.974;2023-12-04T00:12:29;0.20;99.90
11591;DHT22;5851;54.050;9.974;2023-12-04T00:14:57;0.20;99.90
11591;DHT22;5851;54.050;9.974;2023-12-04T00:17:24;0.20;99.90
11591;DHT22;5851;54.050;9.974;2023-12-04T00:19:51;0.10;99.90
11591;DHT22;5851;54.050;9.974;2023-12-04T00:22:18;0.20;99.90
11591;DHT22;5851;54.050;9.974;2023-12-04T00:24:45;0.20;99.90
11591;DHT22;5851;54.050;9.974;2023-12-04T00:27:12;0.10;99.90
11591;DHT22;5851;54.050;9.974;2023-12-04T00:29:39;0.20;99.90
11591;DHT22;5851;54.050;9.974;2023-12-04T00:32:07;0.20;99.90
11591;DHT22;5851;54.050;9.974;2023-12-04T00:34:34;0.10;99.90
11591;DHT22;5851;54.050;9.974;2023-12-04T00:37:01;0.20;99.90
11591;DHT22;5851;54.050;9.974;2023-12-04T00:39:28;-0.10;99.90
11591;DHT22;5851;54.050;9.974;2023-12-04T00:41:55;0.10;99.90
11591;DHT22;5851;54.050;9.974;2023-12-04T00:44:22;0.10;99.90
11591;DHT22;5851;54.050;9.974;2023-12-04T00:46:49;0.00;99.90
11591;DHT22;5851;54.050;9.974;2023-12-04T00:49:17;0.00;99.90
11591;DHT22;5851;54.050;9.974;2023-12-04T00:51:44;0.00;99.90
11591;DHT22;5851;54.050;9.974;2023-12-04T00:54:11;0.10;99.90
11591;DHT22;5851;54.050;9.974;2023-12-04T00:56:38;0.10;99.90
11591;DHT22;5851;54.050;9.974;2023-12-04T00:59:06;0.00;99.90
11591;DHT22;5851;54.050;9.974;2023-12-04T01:01:33;0.00;99.90
11591;DHT22;5851;54.050;9.974;2023-12-04T01:04:00;0.00;99.90
11591;DHT22;5851;54.050;9.974;2023-12-04T01:06:28;-0.10;99.90
11591;DHT22;5851;54.050;9.974;2023-12-04T01:08:56;0.00;99.90
11591;DHT22;5851;54.050;9.974;2023-12-04T01:11:23;-0.10;99.90
11591;DHT22;5851;54.050;9.974;2023-12-04T01:13:50;-0.30;99.90
11591;DHT22;5851;54.050;9.974;2023-12-04T01:16:19;-0.40;99.90
11591;DHT22;5851;54.050;9.974;2023-12-04T01:18:46;-0.30;99.90
11591;DHT22;5851;54.050;9.974;2023-12-04T01:21:13;-0.20;99.90
11591;DHT22;5851;54.050;9.974;2023-12-04T01:23:41;-0.20;99.90
11591;DHT22;5851;54.050;9.974;2023-12-04T01:26:10;-0.30;99.90
11591;DHT22;5851;54.050;9.974;2023-12-04T01:28:37;-0.30;99.90
11591;DHT22;5851;54.050;9.974;2023-12-04T01:31:05;-0.20;99.90
11591;DHT22;5851;54.050;9.974;2023-12-04T01:33:32;-0.20;99.90
11591;DHT22;5851;54.050;9.974;2023-12-04T01:35:59;-0.40;99.90
11591;DHT22;5851;54.050;9.974;2023-12-04T01:38:26;-0.40;99.90
11591;DHT22;5851;54.050;9.974;2023-12-04T01:40:54;-0.40;99.90
11591;DHT22;5851;54.050;9.974;2023-12-04T01:43:21;-0.40;99.90
11591;DHT22;5851;54.050;9.974;2023-12-04T01:45:49;-0.40;99.90
11591;DHT22;5851;54.050;9.974;2023-12-04T01:48:17;-0.30;99.90
11591;DHT22;5851;54.050;9.974;2023-12-04T01:50:44;-0.40;99.90
11591;DHT22;5851;54.050;9.974;2023-12-04T01:53:11;-0.40;99.90
11591;DHT22;5851;54.050;9.974;2023-12-04T01:55:38;-0.40;99.90
11591;DHT22;5851;54.050;9.974;2023-12-04T01:58:07;-0.40;99.90
11591;DHT22;5851;54.050;9.974;2023-12-04T02:00:34;-0.40;99.90
11591;DHT22;5851;54.050;9.974;2023-12-04T02:03:01;-0.40;99.90
11591;DHT22;5851;54.050;9.974;2023-12-04T02:05:28;-0.50;99.90
11591;DHT22;5851;54.050;9.974;2023-12-04T02:07:55;-0.40;99.90
11591;DHT22;5851;54.050;9.974;2023-12-04T02:10:22;-0.60;99.90
11591;DHT22;5851;54.050;9.974;2023-12-04T02:12:50;-0.50;99.90
11591;DHT22;5851;54.050;9.974;2023-12-04T02:15:19;-0.30;99.90
11591;DHT22;5851;54.050;9.974;2023-12-04T02:17:46;-0.30;99.90
11591;DHT22;5851;54.050;9.974;2023-12-04T02:20:13;-0.40;99.90
11591;DHT22;5851;54.050;9.974;2023-12-04T02:22:40;-0.40;99.90
11591;DHT22;5851;54.050;9.974;2023-12-04T02:25:10;-0.40;99.90
11591;DHT22;5851;54.050;9.974;2023-12-04T02:27:40;-0.40;99.90
11591;DHT22;5851;54.050;9.974;2023-12-04T02:30:12;-0.40;99.90
11591;DHT22;5851;54.050;9.974;2023-12-04T02:32:45;-0.40;99.90
11591;DHT22;5851;54.050;9.974;2023-12-04T02:35:14;-0.30;99.90
11591;DHT22;5851;54.050;9.974;2023-12-04T02:37:41;-0.40;99.90
11591;DHT22;5851;54.050;9.974;2023-12-04T02:40:11;-0.60;99.90
11591;DHT22;5851;54.050;9.974;2023-12-04T02:42:39;-0.60;99.90
11591;DHT22;5851;54.050;9.974;2023-12-04T02:45:07;-0.60;99.90
11591;DHT22;5851;54.050;9.974;2023-12-04T02:47:34;-0.60;99.90
11591;DHT22;5851;54.050;9.974;2023-12-04T02:50:01;-0.50;99.90
11591;DHT22;5851;54.050;9.974;2023-12-04T02:52:28;-0.60;99.90
11591;DHT22;5851;54.050;9.974;2023-12-04T02:54:55;-0.80;99.90
11591;DHT22;5851;54.050;9.974;2023-12-04T02:57:23;-0.60;99.90
11591;DHT22;5851;54.050;9.974;2023-12-04T02:59:50;-0.70;99.90
11591;DHT22;5851;54.050;9.974;2023-12-04T03:02:17;-0.70;99.90
11591;DHT22;5851;54.050;9.974;2023-12-04T03:04:45;-0.70;99.90
11591;DHT22;5851;54.050;9.974;2023-12-04T03:07:12;-0.60;99.90
11591;DHT22;5851;54.050;9.974;2023-12-04T03:09:39;-0.70;99.90
11591;DHT22;5851;54.050;9.974;2023-12-04T03:12:06;-0.60;99.90
11591;DHT22;5851;54.050;9.974;2023-12-04T03:14:35;-0.60;99.90
11591;DHT22;5851;54.050;9.974;2023-12-04T03:17:02;-0.60;99.90
11591;DHT22;5851;54.050;9.974;2023-12-04T03:19:29;-0.70;99.90
11591;DHT22;5851;54.050;9.974;2023-12-04T03:21:55;-0.70;99.90
11591;DHT22;5851;54.050;9.974;2023-12-04T03:24:22;-0.80;99.90
11591;DHT22;5851;54.050;9.974;2023-12-04T03:26:49;-0.80;99.90
11591;DHT22;5851;54.050;9.974;2023-12-04T03:29:16;-0.60;99.90
11591;DHT22;5851;54.050;9.974;2023-12-04T03:31:44;-0.70;99.90
11591;DHT22;5851;54.050;9.974;2023-12-04T03:34:11;-0.60;99.90
11591;DHT22;5851;54.050;9.974;2023-12-04T03:36:38;-0.80;99.90
11591;DHT22;5851;54.050;9.974;2023-12-04T03:39:05;-1.00;99.90
11591;DHT22;5851;54.050;9.974;2023-12-04T03:41:32;-1.00;99.90
11591;DHT22;5851;54.050;9.974;2023-12-04T03:43:59;-0.90;99.90
11591;DHT22;5851;54.050;9.974;2023-12-04T03:46:26;-0.80;99.90
11591;DHT22;5851;54.050;9.974;2023-12-04T03:48:55;-0.90;99.90
11591;DHT22;5851;54.050;9.974;2023-12-04T03:51:22;-1.00;99.90
11591;DHT22;5851;54.050;9.974;2023-12-04T03:53:49;-0.90;99.90
11591;DHT22;5851;54.050;9.974;2023-12-04T03:56:16;-0.80;99.90
11591;DHT22;5851;54.050;9.974;2023-12-04T03:58:43;-0.80;99.90
11591;DHT22;5851;54.050;9.974;2023-12-04T04:01:09;-0.90;99.90
11591;DHT22;5851;54.050;9.974;2023-12-04T04:03:36;-0.80;99.90
11591;DHT22;5851;54.050;9.974;2023-12-04T04:06:06;-0.60;99.90
11591;DHT22;5851;54.050;9.974;2023-12-04T04:08:33;-0.60;99.90
11591;DHT22;5851;54.050;9.974;2023-12-04T04:11:00;-0.60;99.90
11591;DHT22;5851;54.050;9.974;2023-12-04T04:13:27;-0.70;99.90
11591;DHT22;5851;54.050;9.974;2023-12-04T04:15:54;-0.90;99.90
11591;DHT22;5851;54.050;9.974;2023-12-04T04:18:21;-0.70;99.90
11591;DHT22;5851;54.050;9.974;2023-12-04T04:20:48;-0.80;99.90
11591;DHT22;5851;54.050;9.974;2023-12-04T04:23:16;-0.70;99.90
11591;DHT22;5851;54.050;9.974;2023-12-04T04:25:43;-0.80;99.90
11591;DHT22;5851;54.050;9.974;2023-12-04T04:28:10;-0.80;99.90
11591;DHT22;5851;54.050;9.974;2023-12-04T04:30:37;-1.00;99.90
11591;DHT22;5851;54.050;9.974;2023-12-04T04:33:05;-0.80;99.90
11591;DHT22;5851;54.050;9.974;2023-12-04T04:35:32;-0.80;99.90
11591;DHT22;5851;54.050;9.974;2023-12-04T04:37:59;-0.70;99.90
11591;DHT22;5851;54.050;9.974;2023-12-04T04:40:27;-0.60;99.90
11591;DHT22;5851;54.050;9.974;2023-12-04T04:42:54;-0.80;99.90
11591;DHT22;5851;54.050;9.974;2023-12-04T04:45:21;-0.80;99.90
11591;DHT22;5851;54.050;9.974;2023-12-04T04:47:50;-0.80;99.90
11591;DHT22;5851;54.050;9.974;2023-12-04T04:50:19;-0.90;99.90
11591;DHT22;5851;54.050;9.974;2023-12-04T04:52:46;-0.70;99.90
11591;DHT22;5851;54.050;9.974;2023-12-04T04:55:13;-0.70;99.90
11591;DHT22;5851;54.050;9.974;2023-12-04T04:57:41;-0.80;99.90
11591;DHT22;5851;54.050;9.974;2023-12-04T05:00:09;-0.90;99.90
11591;DHT22;5851;54.050;9.974;2023-12-04T05:02:36;-0.90;99.90
11591;DHT22;5851;54.050;9.974;2023-12-04T05:05:03;-0.80;99.90
11591;DHT22;5851;54.050;9.974;2023-12-04T05:07:30;-0.70;99.90
11591;DHT22;5851;54.050;9.974;2023-12-04T05:09:57;-0.70;99.90
11591;DHT22;5851;54.050;9.974;2023-12-04T05:12:24;-0.90;99.90
11591;DHT22;5851;54.050;9.974;2023-12-04T05:14:52;-0.90;99.90
11591;DHT22;5851;54.050;9.974;2023-12-04T05:17:19;-1.00;99.90
11591;DHT22;5851;54.050;9.974;2023-12-04T05:19:46;-1.00;99.90
11591;DHT22;5851;54.050;9.974;2023-12-04T05:22:13;-1.00;99.90
11591;DHT22;5851;54.050;9.974;2023-12-04T05:24:40;-1.10;99.90
11591;DHT22;5851;54.050;9.974;2023-12-04T05:27:07;-1.00;99.90
11591;DHT22;5851;54.050;9.974;2023-12-04T05:29:34;-0.80;99.90
11591;DHT22;5851;54.050;9.974;2023-12-04T05:32:03;-0.80;99.90
11591;DHT22;5851;54.050;9.974;2023-12-04T05:34:30;-0.90;99.90
11591;DHT22;5851;54.050;9.974;2023-12-04T05:36:57;-1.10;99.90
11591;DHT22;5851;54.050;9.974;2023-12-04T05:39:24;-1.10;99.90
11591;DHT22;5851;54.050;9.974;2023-12-04T05:41:51;-1.10;99.90
11591;DHT22;5851;54.050;9.974;2023-12-04T05:44:18;-1.10;99.90
11591;DHT22;5851;54.050;9.974;2023-12-04T05:46:45;-1.10;99.90
11591;DHT22;5851;54.050;9.974;2023-12-04T05:49:13;-1.00;99.90
11591;DHT22;5851;54.050;9.974;2023-12-04T05:51:40;-0.90;99.90
11591;DHT22;5851;54.050;9.974;2023-12-04T05:54:08;-1.20;99.90
11591;DHT22;5851;54.050;9.974;2023-12-04T05:56:35;-1.10;99.90
11591;DHT22;5851;54.050;9.974;2023-12-04T05:59:01;-0.90;99.90
11591;DHT22;5851;54.050;9.974;2023-12-04T06:01:28;-0.80;99.90
11591;DHT22;5851;54.050;9.974;2023-12-04T06:03:55;-0.90;99.90
11591;DHT22;5851;54.050;9.974;2023-12-04T06:06:24;-1.00;99.90
11591;DHT22;5851;54.050;9.974;2023-12-04T06:08:51;-1.00;99.90
11591;DHT22;5851;54.050;9.974;2023-12-04T06:11:18;-0.90;99.90
11591;DHT22;5851;54.050;9.974;2023-12-04T06:13:45;-1.10;99.90
11591;DHT22;5851;54.050;9.974;2023-12-04T06:16:12;-1.10;99.90
11591;DHT22;5851;54.050;9.974;2023-12-04T06:18:38;-1.20;99.90
11591;DHT22;5851;54.050;9.974;2023-12-04T06:21:06;-1.00;99.90
11591;DHT22;5851;54.050;9.974;2023-12-04T06:23:35;-1.10;99.90
11591;DHT22;5851;54.050;9.974;2023-12-04T06:26:02;-1.20;99.90
11591;DHT22;5851;54.050;9.974;2023-12-04T06:28:30;-1.10;99.90
11591;DHT22;5851;54.050;9.974;2023-12-04T06:30:58;-1.10;99.90
11591;DHT22;5851;54.050;9.974;2023-12-04T06:33:26;-1.00;99.90
11591;DHT22;5851;54.050;9.974;2023-12-04T06:35:54;-1.00;99.90
11591;DHT22;5851;54.050;9.974;2023-12-04T06:38:24;-0.90;99.90
11591;DHT22;5851;54.050;9.974;2023-12-04T06:40:53;-0.90;99.90
11591;DHT22;5851;54.050;9.974;2023-12-04T06:43:20;-1.20;99.90
11591;DHT22;5851;54.050;9.974;2023-12-04T06:45:48;-1.10;99.90
11591;DHT22;5851;54.050;9.974;2023-12-04T06:48:16;-1.10;99.90
11591;DHT22;5851;54.050;9.974;2023-12-04T06:50:43;-1.10;99.90
11591;DHT22;5851;54.050;9.974;2023-12-04T06:53:10;-1.00;99.90
11591;DHT22;5851;54.050;9.974;2023-12-04T06:55:37;-1.20;99.90
11591;DHT22;5851;54.050;9.974;2023-12-04T06:58:05;-1.20;99.90
11591;DHT22;5851;54.050;9.974;2023-12-04T07:00:32;-1.20;99.90
11591;DHT22;5851;54.050;9.974;2023-12-04T07:02:59;-1.00;99.90
11591;DHT22;5851;54.050;9.974;2023-12-04T07:05:26;-1.00;99.90
11591;DHT22;5851;54.050;9.974;2023-12-04T07:07:53;-1.10;99.90
11591;DHT22;5851;54.050;9.974;2023-12-04T07:10:20;-1.10;99.90
11591;DHT22;5851;54.050;9.974;2023-12-04T07:12:47;-0.90;99.90
11591;DHT22;5851;54.050;9.974;2023-12-04T07:15:15;-1.10;99.90
11591;DHT22;5851;54.050;9.974;2023-12-04T07:17:42;-1.00;99.90
11591;DHT22;5851;54.050;9.974;2023-12-04T07:20:10;-1.10;99.90
11591;DHT22;5851;54.050;9.974;2023-12-04T07:22:38;-1.20;99.90
11591;DHT22;5851;54.050;9.974;2023-12-04T07:25:06;-1.00;99.90
11591;DHT22;5851;54.050;9.974;2023-12-04T07:27:33;-1.00;99.90
11591;DHT22;5851;54.050;9.974;2023-12-04T07:30:00;-1.00;99.90
11591;DHT22;5851;54.050;9.974;2023-12-04T07:32:29;-1.00;99.90
11591;DHT22;5851;54.050;9.974;2023-12-04T07:34:58;-1.00;99.90
11591;DHT22;5851;54.050;9.974;2023-12-04T07:37:25;-1.10;99.90
11591;DHT22;5851;54.050;9.974;2023-12-04T07:39:52;-1.10;99.90
11591;DHT22;5851;54.050;9.974;2023-12-04T07:42:19;-0.90;99.90
11591;DHT22;5851;54.050;9.974;2023-12-04T07:44:46;-1.00;99.90
11591;DHT22;5851;54.050;9.974;2023-12-04T07:47:13;-1.30;99.90
11591;DHT22;5851;54.050;9.974;2023-12-04T07:49:44;-1.40;99.90
11591;DHT22;5851;54.050;9.974;2023-12-04T07:52:11;-1.10;99.90
11591;DHT22;5851;54.050;9.974;2023-12-04T07:54:38;-1.00;99.90
11591;DHT22;5851;54.050;9.974;2023-12-04T07:57:05;-1.20;99.90
11591;DHT22;5851;54.050;9.974;2023-12-04T07:59:32;-1.00;99.90
11591;DHT22;5851;54.050;9.974;2023-12-04T08:02:00;-1.20;99.90
11591;DHT22;5851;54.050;9.974;2023-12-04T08:04:27;-1.10;99.90
11591;DHT22;5851;54.050;9.974;2023-12-04T08:06:56;-1.20;99.90
11591;DHT22;5851;54.050;9.974;2023-12-04T08:09:23;-1.30;99.90
11591;DHT22;5851;54.050;9.974;2023-12-04T08:11:50;-1.10;99.90
11591;DHT22;5851;54.050;9.974;2023-12-04T08:14:17;-1.00;99.90
11591;DHT22;5851;54.050;9.974;2023-12-04T08:16:44;-0.80;99.90
11591;DHT22;5851;54.050;9.974;2023-12-04T08:19:11;-0.90;99.90
11591;DHT22;5851;54.050;9.974;2023-12-04T08:21:38;-1.00;99.90
11591;DHT22;5851;54.050;9.974;2023-12-04T08:24:07;-1.00;99.90
11591;DHT22;5851;54.050;9.974;2023-12-04T08:26:34;-1.10;99.90
11591;DHT22;5851;54.050;9.974;2023-12-04T08:29:01;-1.10;99.90
11591;DHT22;5851;54.050;9.974;2023-12-04T08:31:28;-1.00;99.90
11591;DHT22;5851;54.050;9.974;2023-12-04T08:33:56;-1.10;99.90
11591;DHT22;5851;54.050;9.974;2023-12-04T08:36:23;-1.00;99.90
11591;DHT22;5851;54.050;9.974;2023-12-04T08:38:51;-0.80;99.90
11591;DHT22;5851;54.050;9.974;2023-12-04T08:41:19;-0.80;99.90
11591;DHT22;5851;54.050;9.974;2023-12-04T08:43:48;-0.80;99.90
11591;DHT22;5851;54.050;9.974;2023-12-04T08:46:16;-0.90;99.90
11591;DHT22;5851;54.050;9.974;2023-12-04T08:48:43;-0.90;99.90
11591;DHT22;5851;54.050;9.974;2023-12-04T08:51:15;-0.90;99.90
11591;DHT22;5851;54.050;9.974;2023-12-04T08:53:43;-0.80;99.90
11591;DHT22;5851;54.050;9.974;2023-12-04T08:56:10;-0.80;99.90
11591;DHT22;5851;54.050;9.974;2023-12-04T08:59:06;-0.80;99.90
11591;DHT22;5851;54.050;9.974;2023-12-04T09:02:28;-0.90;99.90
11591;DHT22;5851;54.050;9.974;2023-12-04T09:04:55;-0.60;99.90
11591;DHT22;5851;54.050;9.974;2023-12-04T09:08:10;-1.00;99.90
11591;DHT22;5851;54.050;9.974;2023-12-04T09:10:37;-0.80;99.90
11591;DHT22;5851;54.050;9.974;2023-12-04T09:13:05;-0.70;99.90
11591;DHT22;5851;54.050;9.974;2023-12-04T09:15:34;-0.90;99.90
11591;DHT22;5851;54.050;9.974;2023-12-04T09:18:01;-0.90;99.90
11591;DHT22;5851;54.050;9.974;2023-12-04T09:20:29;-1.00;99.90
11591;DHT22;5851;54.050;9.974;2023-12-04T09:23:09;-0.90;99.90
11591;DHT22;5851;54.050;9.974;2023-12-04T09:25:38;-0.80;99.90
11591;DHT22;5851;54.050;9.974;2023-12-04T09:28:08;-0.90;99.90
11591;DHT22;5851;54.050;9.974;2023-12-04T09:30:41;-1.20;99.90
11591;DHT22;5851;54.050;9.974;2023-12-04T09:33:08;-1.00;99.90
11591;DHT22;5851;54.050;9.974;2023-12-04T09:35:35;-1.00;99.90
11591;DHT22;5851;54.050;9.974;2023-12-04T09:38:03;-1.00;99.90
11591;DHT22;5851;54.050;9.974;2023-12-04T09:40:32;-1.20;99.90
11591;DHT22;5851;54.050;9.974;2023-12-04T09:42:59;-1.20;99.90
11591;DHT22;5851;54.050;9.974;2023-12-04T09:45:29;-1.30;99.90
11591;DHT22;5851;54.050;9.974;2023-12-04T09:48:00;-1.20;99.90
11591;DHT22;5851;54.050;9.974;2023-12-04T09:50:27;-1.10;99.90
11591;DHT22;5851;54.050;9.974;2023-12-04T09:52:55;-1.20;99.90
11591;DHT22;5851;54.050;9.974;2023-12-04T09:55:26;-1.00;99.90
11591;DHT22;5851;54.050;9.974;2023-12-04T09:57:54;-1.10;99.90
11591;DHT22;5851;54.050;9.974;2023-12-04T10:00:25;-1.00;99.90
11591;DHT22;5851;54.050;9.974;2023-12-04T10:02:53;-0.90;99.90
11591;DHT22;5851;54.050;9.974;2023-12-04T10:05:21;-1.00;99.90
11591;DHT22;5851;54.050;9.974;2023-12-04T10:07:50;-1.00;99.90
11591;DHT22;5851;54.050;9.974;2023-12-04T10:10:18;-1.10;99.90
11591;DHT22;5851;54.050;9.974;2023-12-04T10:12:45;-1.10;99.90
11591;DHT22;5851;54.050;9.974;2023-12-04T10:15:13;-1.20;99.90
11591;DHT22;5851;54.050;9.974;2023-12-04T10:17:42;-1.00;99.90
11591;DHT22;5851;54.050;9.974;2023-12-04T10:20:10;-1.00;99.90
11591;DHT22;5851;54.050;9.974;2023-12-04T10:22:54;-1.20;99.90
11591;DHT22;5851;54.050;9.974;2023-12-04T10:25:22;-1.20;99.90
11591;DHT22;5851;54.050;9.974;2023-12-04T10:27:50;-1.20;99.90
11591;DHT22;5851;54.050;9.974;2023-12-04T10:30:29;-1.00;99.90
11591;DHT22;5851;54.050;9.974;2023-12-04T10:32:57;-1.10;99.90
11591;DHT22;5851;54.050;9.974;2023-12-04T10:35:28;-0.80;99.90
11591;DHT22;5851;54.050;9.974;2023-12-04T10:37:57;-0.80;99.90
11591;DHT22;5851;54.050;9.974;2023-12-04T10:40:25;-1.00;99.90
11591;DHT22;5851;54.050;9.974;2023-12-04T10:43:15;-1.00;99.90
11591;DHT22;5851;54.050;9.974;2023-12-04T10:45:43;-1.00;99.90
11591;DHT22;5851;54.050;9.974;2023-12-04T10:48:11;-1.10;99.90
11591;DHT22;5851;54.050;9.974;2023-12-04T10:50:40;-1.10;99.90
11591;DHT22;5851;54.050;9.974;2023-12-04T10:53:09;-1.00;99.90
11591;DHT22;5851;54.050;9.974;2023-12-04T10:55:37;-0.90;99.90
11591;DHT22;5851;54.050;9.974;2023-12-04T10:58:06;-0.80;99.90
11591;DHT22;5851;54.050;9.974;2023-12-04T11:00:34;-0.60;99.90
11591;DHT22;5851;54.050;9.974;2023-12-04T11:03:05;-0.80;99.90
11591;DHT22;5851;54.050;9.974;2023-12-04T11:05:38;-0.80;99.90
11591;DHT22;5851;54.050;9.974;2023-12-04T11:08:08;-0.90;99.90
11591;DHT22;5851;54.050;9.974;2023-12-04T11:10:41;-0.80;99.90
11591;DHT22;5851;54.050;9.974;2023-12-04T11:13:15;-0.80;99.90
11591;DHT22;5851;54.050;9.974;2023-12-04T11:15:47;-0.70;99.90
11591;DHT22;5851;54.050;9.974;2023-12-04T11:18:16;-0.60;99.90
11591;DHT22;5851;54.050;9.974;2023-12-04T11:20:58;-0.80;99.90
11591;DHT22;5851;54.050;9.974;2023-12-04T11:23:27;-0.70;99.90
11591;DHT22;5851;54.050;9.974;2023-12-04T11:25:54;-0.70;99.90
11591;DHT22;5851;54.050;9.974;2023-12-04T11:28:22;-0.80;99.90
11591;DHT22;5851;54.050;9.974;2023-12-04T11:30:50;-0.80;99.90
11591;DHT22;5851;54.050;9.974;2023-12-04T11:33:17;-0.90;99.90
11591;DHT22;5851;54.050;9.974;2023-12-04T11:35:45;-0.80;99.90
11591;DHT22;5851;54.050;9.974;2023-12-04T11:38:13;-0.80;99.90
11591;DHT22;5851;54.050;9.974;2023-12-04T11:40:43;-0.80;99.90
11591;DHT22;5851;54.050;9.974;2023-12-04T11:43:24;-0.70;99.90
11591;DHT22;5851;54.050;9.974;2023-12-04T11:45:51;-0.70;99.90
11591;DHT22;5851;54.050;9.974;2023-12-04T11:48:22;-0.70;99.90
11591;DHT22;5851;54.050;9.974;2023-12-04T11:50:50;-0.50;99.90
11591;DHT22;5851;54.050;9.974;2023-12-04T11:53:18;-0.60;99.90
11591;DHT22;5851;54.050;9.974;2023-12-04T11:55:47;-0.60;99.90
11591;DHT22;5851;54.050;9.974;2023-12-04T11:58:16;-0.60;99.90
11591;DHT22;5851;54.050;9.974;2023-12-04T12:00:43;-0.60;99.90
11591;DHT22;5851;54.050;9.974;2023-12-04T12:03:10;-0.70;99.90
11591;DHT22;5851;54.050;9.974;2023-12-04T12:05:37;-0.70;99.90
11591;DHT22;5851;54.050;9.974;2023-12-04T12:08:07;-0.70;99.90
11591;DHT22;5851;54.050;9.974;2023-12-04T12:10:35;-0.80;99.90
11591;DHT22;5851;54.050;9.974;2023-12-04T12:13:03;-0.70;99.90
11591;DHT22;5851;54.050;9.974;2023-12-04T12:15:32;-0.60;99.90
11591;DHT22;5851;54.050;9.974;2023-12-04T12:17:59;-0.70;99.90
11591;DHT22;5851;54.050;9.974;2023-12-04T12:20:26;-0.50;99.90
11591;DHT22;5851;54.050;9.974;2023-12-04T12:22:53;-0.50;99.90
11591;DHT22;5851;54.050;9.974;2023-12-04T12:25:20;-0.60;99.90
11591;DHT22;5851;54.050;9.974;2023-12-04T12:27:48;-0.70;99.90
11591;DHT22;5851;54.050;9.974;2023-12-04T12:30:16;-0.60;99.90
11591;DHT22;5851;54.050;9.974;2023-12-04T12:32:43;-0.70;99.90
11591;DHT22;5851;54.050;9.974;2023-12-04T12:35:10;-0.70;99.90
11591;DHT22;5851;54.050;9.974;2023-12-04T12:37:38;-0.60;99.90
11591;DHT22;5851;54.050;9.974;2023-12-04T12:40:06;-0.60;99.90
11591;DHT22;5851;54.050;9.974;2023-12-04T12:42:36;-0.50;99.90
11591;DHT22;5851;54.050;9.974;2023-12-04T12:45:06;-0.50;99.90
11591;DHT22;5851;54.050;9.974;2023-12-04T12:47:37;-0.70;99.90
11591;DHT22;5851;54.050;9.974;2023-12-04T12:50:08;-0.60;99.90
11591;DHT22;5851;54.050;9.974;2023-12-04T12:52:39;-0.60;99.90
11591;DHT22;5851;54.050;9.974;2023-12-04T12:55:07;-0.60;99.90
11591;DHT22;5851;54.050;9.974;2023-12-04T12:57:35;-0.60;99.90
11591;DHT22;5851;54.050;9.974;2023-12-04T13:00:02;-0.40;99.90
11591;DHT22;5851;54.050;9.974;2023-12-04T13:02:36;-0.50;99.90
11591;DHT22;5851;54.050;9.974;2023-12-04T13:05:05;-0.50;99.90
11591;DHT22;5851;54.050;9.974;2023-12-04T13:07:33;-0.60;99.90
11591;DHT22;5851;54.050;9.974;2023-12-04T13:10:00;-0.50;99.90
11591;DHT22;5851;54.050;9.974;2023-12-04T13:12:31;-0.50;99.90
11591;DHT22;5851;54.050;9.974;2023-12-04T13:14:58;-0.60;99.90
11591;DHT22;5851;54.050;9.974;2023-12-04T13:17:26;-0.50;99.90
11591;DHT22;5851;54.050;9.974;2023-12-04T13:19:55;-0.60;99.90
11591;DHT22;5851;54.050;9.974;2023-12-04T13:22:22;-0.60;99.90
11591;DHT22;5851;54.050;9.974;2023-12-04T13:24:49;-0.60;99.90
11591;DHT22;5851;54.050;9.974;2023-12-04T13:27:16;-0.40;99.90
11591;DHT22;5851;54.050;9.974;2023-12-04T13:29:44;-0.30;99.90
11591;DHT22;5851;54.050;9.974;2023-12-04T13:32:15;-0.50;99.90
11591;DHT22;5851;54.050;9.974;2023-12-04T13:34:42;-0.70;99.90
11591;DHT22;5851;54.050;9.974;2023-12-04T13:37:11;-0.70;99.90
11591;DHT22;5851;54.050;9.974;2023-12-04T13:39:38;-0.60;99.90
11591;DHT22;5851;54.050;9.974;2023-12-04T13:42:13;-0.50;99.90
11591;DHT22;5851;54.050;9.974;2023-12-04T13:44:59;-0.60;99.90
11591;DHT22;5851;54.050;9.974;2023-12-04T13:47:26;-0.50;99.90
11591;DHT22;5851;54.050;9.974;2023-12-04T13:49:53;-0.40;99.90
11591;DHT22;5851;54.050;9.974;2023-12-04T13:52:22;-0.50;99.90
11591;DHT22;5851;54.050;9.974;2023-12-04T13:54:50;-0.50;99.90
11591;DHT22;5851;54.050;9.974;2023-12-04T13:57:22;-0.40;99.90
11591;DHT22;5851;54.050;9.974;2023-12-04T13:59:58;-0.40;99.90
11591;DHT22;5851;54.050;9.974;2023-12-04T14:02:25;-0.40;99.90
11591;DHT22;5851;54.050;9.974;2023-12-04T14:04:53;-0.50;99.90
11591;DHT22;5851;54.050;9.974;2023-12-04T14:07:22;-0.60;99.90
11591;DHT22;5851;54.050;9.974;2023-12-04T14:09:50;-0.60;99.90
11591;DHT22;5851;54.050;9.974;2023-12-04T14:12:17;-0.50;99.90
11591;DHT22;5851;54.050;9.974;2023-12-04T14:14:44;-0.50;99.90
11591;DHT22;5851;54.050;9.974;2023-12-04T14:17:11;-0.50;99.90
11591;DHT22;5851;54.050;9.974;2023-12-04T14:19:38;-0.50;99.90
11591;DHT22;5851;54.050;9.974;2023-12-04T14:22:07;-0.50;99.90
11591;DHT22;5851;54.050;9.974;2023-12-04T14:24:35;-0.50;99.90
11591;DHT22;5851;54.050;9.974;2023-12-04T14:27:04;-0.40;99.90
11591;DHT22;5851;54.050;9.974;2023-12-04T14:29:32;-0.30;99.90
11591;DHT22;5851;54.050;9.974;2023-12-04T14:31:59;-0.50;99.90
11591;DHT22;5851;54.050;9.974;2023-12-04T14:34:26;-0.50;99.90
11591;DHT22;5851;54.050;9.974;2023-12-04T14:36:54;-0.60;99.90
11591;DHT22;5851;54.050;9.974;2023-12-04T14:39:21;-0.70;99.90
11591;DHT22;5851;54.050;9.974;2023-12-04T14:41:50;-0.50;99.90
11591;DHT22;5851;54.050;9.974;2023-12-04T14:44:17;-0.60;99.90
11591;DHT22;5851;54.050;9.974;2023-12-04T14:46:45;-0.60;99.90
11591;DHT22;5851;54.050;9.974;2023-12-04T14:49:12;-0.50;99.90
11591;DHT22;5851;54.050;9.974;2023-12-04T14:51:39;-0.50;99.90
11591;DHT22;5851;54.050;9.974;2023-12-04T14:54:06;-0.50;99.90
11591;DHT22;5851;54.050;9.974;2023-12-04T14:56:42;-0.70;99.90
11591;DHT22;5851;54.050;9.974;2023-12-04T14:59:27;-0.50;99.90
11591;DHT22;5851;54.050;9.974;2023-12-04T15:02:15;-0.50;99.90
11591;DHT22;5851;54.050;9.974;2023-12-04T15:04:59;-0.40;99.90
11591;DHT22;5851;54.050;9.974;2023-12-04T15:07:44;-0.50;99.90
11591;DHT22;5851;54.050;9.974;2023-12-04T15:10:36;-0.50;99.90
11591;DHT22;5851;54.050;9.974;2023-12-04T15:13:29;-0.60;99.90
11591;DHT22;5851;54.050;9.974;2023-12-04T15:16:11;-0.60;99.90
11591;DHT22;5851;54.050;9.974;2023-12-04T15:18:59;-0.70;99.90
11591;DHT22;5851;54.050;9.974;2023-12-04T15:21:47;-0.60;99.90
11591;DHT22;5851;54.050;9.974;2023-12-04T15:24:15;-0.70;99.90
11591;DHT22;5851;54.050;9.974;2023-12-04T15:26:41;-0.40;99.90
11591;DHT22;5851;54.050;9.974;2023-12-04T15:29:08;-0.50;99.90
11591;DHT22;5851;54.050;9.974;2023-12-04T15:31:37;-0.60;99.90
11591;DHT22;5851;54.050;9.974;2023-12-04T15:34:05;-0.50;99.90
11591;DHT22;5851;54.050;9.974;2023-12-04T15:36:32;-0.40;99.90
11591;DHT22;5851;54.050;9.974;2023-12-04T15:38:59;-0.60;99.90
11591;DHT22;5851;54.050;9.974;2023-12-04T15:41:25;-0.50;99.90
11591;DHT22;5851;54.050;9.974;2023-12-04T15:43:52;-0.60;99.90
11591;DHT22;5851;54.050;9.974;2023-12-04T15:46:20;-0.70;99.90
11591;DHT22;5851;54.050;9.974;2023-12-04T15:48:49;-0.50;99.90
11591;DHT22;5851;54.050;9.974;2023-12-04T15:51:16;-0.30;99.90
11591;DHT22;5851;54.050;9.974;2023-12-04T15:53:42;-0.40;99.90
11591;DHT22;5851;54.050;9.974;2023-12-04T15:56:10;-0.40;99.90